High Level, High Level Airport (CYOJ)

NameHigh Level Airport
CityHigh Level
CountryCanada
ICAOCYOJ
IATAYOJ
Altitude338 m
CoordinatesGoogle Map
Live Air TrafficLiveATC.net
METARCYOJ 201300Z 00000KT 15SM SKC M04/M06 A2993 RMK SLP153
2019-03-20 13:00:00 Wind: North (0°) 0 m/s - Visibility: 24140.1 m - Temperature: -4 °C - Dew point: -6 °C - Humidity: 86.2% - Pressure: 1013.55 hPa

Sorry, no flights used the airport in this database.